sensor_id;sensor_type;location;lat;lon;timestamp;P1;P2;P0
13030;PMS7003;6582;54.644;9.760;2022-09-01T00:00:07;79.2;67.7;
13030;PMS7003;6582;54.644;9.760;2022-09-01T00:05:07;80.1;68.7;
13030;PMS7003;6582;54.644;9.760;2022-09-01T00:10:08;79.7;68.0;
13030;PMS7003;6582;54.644;9.760;2022-09-01T00:15:23;80.2;68.3;
13030;PMS7003;6582;54.644;9.760;2022-09-01T00:20:08;80.5;68.7;
13030;PMS7003;6582;54.644;9.760;2022-09-01T00:25:09;80.3;68.4;
13030;PMS7003;6582;54.644;9.760;2022-09-01T00:45:10;82.0;70.2;
13030;PMS7003;6582;54.644;9.760;2022-09-01T00:50:19;82.5;71.1;
13030;PMS7003;6582;54.644;9.760;2022-09-01T00:55:24;82.3;70.9;
13030;PMS7003;6582;54.644;9.760;2022-09-01T01:00:11;82.4;71.0;
13030;PMS7003;6582;54.644;9.760;2022-09-01T01:05:17;82.7;71.6;
13030;PMS7003;6582;54.644;9.760;2022-09-01T01:10:18;82.6;71.4;
13030;PMS7003;6582;54.644;9.760;2022-09-01T01:15:12;81.9;70.2;
13030;PMS7003;6582;54.644;9.760;2022-09-01T01:20:20;81.1;69.1;
13030;PMS7003;6582;54.644;9.760;2022-09-01T02:05:13;53.4;45.8;
13030;PMS7003;6582;54.644;9.760;2022-09-01T02:10:09;56.7;48.2;
13030;PMS7003;6582;54.644;9.760;2022-09-01T02:15:04;57.3;48.7;
13030;PMS7003;6582;54.644;9.760;2022-09-01T02:20:05;56.8;48.0;
13030;PMS7003;6582;54.644;9.760;2022-09-01T02:45:04;52.6;45.4;
13030;PMS7003;6582;54.644;9.760;2022-09-01T02:50:14;54.1;46.8;
13030;PMS7003;6582;54.644;9.760;2022-09-01T02:55:02;55.7;47.9;
13030;PMS7003;6582;54.644;9.760;2022-09-01T03:00:11;57.6;49.2;
13030;PMS7003;6582;54.644;9.760;2022-09-01T03:05:03;59.7;50.7;
13030;PMS7003;6582;54.644;9.760;2022-09-01T03:10:02;60.8;51.4;
13030;PMS7003;6582;54.644;9.760;2022-09-01T03:15:17;61.4;51.6;
13030;PMS7003;6582;54.644;9.760;2022-09-01T03:20:02;61.6;51.4;
13030;PMS7003;6582;54.644;9.760;2022-09-01T03:35:15;62.2;51.8;
13030;PMS7003;6582;54.644;9.760;2022-09-01T03:40:12;62.3;52.0;
13030;PMS7003;6582;54.644;9.760;2022-09-01T03:45:03;63.7;53.0;
13030;PMS7003;6582;54.644;9.760;2022-09-01T03:50:04;64.8;53.8;
13030;PMS7003;6582;54.644;9.760;2022-09-01T04:15:03;65.2;54.6;
13030;PMS7003;6582;54.644;9.760;2022-09-01T04:20:02;65.1;54.7;
13030;PMS7003;6582;54.644;9.760;2022-09-01T04:25:04;67.9;56.9;
13030;PMS7003;6582;54.644;9.760;2022-09-01T04:30:08;69.2;57.7;
13030;PMS7003;6582;54.644;9.760;2022-09-01T04:55:02;72.6;59.6;
13030;PMS7003;6582;54.644;9.760;2022-09-01T05:00:07;73.4;60.6;
13030;PMS7003;6582;54.644;9.760;2022-09-01T05:05:03;72.3;59.9;
13030;PMS7003;6582;54.644;9.760;2022-09-01T05:10:21;79.7;68.0;
13030;PMS7003;6582;54.644;9.760;2022-09-01T05:35:02;71.8;59.6;
13030;PMS7003;6582;54.644;9.760;2022-09-01T05:40:04;72.1;59.7;
13030;PMS7003;6582;54.644;9.760;2022-09-01T05:45:01;72.0;59.5;
13030;PMS7003;6582;54.644;9.760;2022-09-01T05:50:02;72.3;59.7;
13030;PMS7003;6582;54.644;9.760;2022-09-01T05:55:01;71.2;58.9;
13030;PMS7003;6582;54.644;9.760;2022-09-01T06:00:06;71.0;58.6;
13030;PMS7003;6582;54.644;9.760;2022-09-01T06:10:01;69.4;57.4;
13030;PMS7003;6582;54.644;9.760;2022-09-01T06:15:03;67.4;56.0;
13030;PMS7003;6582;54.644;9.760;2022-09-01T06:20:01;64.5;53.8;
13030;PMS7003;6582;54.644;9.760;2022-09-01T06:25:04;63.1;52.8;
13030;PMS7003;6582;54.644;9.760;2022-09-01T06:30:03;60.5;50.9;
13030;PMS7003;6582;54.644;9.760;2022-09-01T06:35:07;59.1;50.0;
13030;PMS7003;6582;54.644;9.760;2022-09-01T06:40:03;58.2;49.4;
13030;PMS7003;6582;54.644;9.760;2022-09-01T06:45:07;58.0;49.2;
13030;PMS7003;6582;54.644;9.760;2022-09-01T06:50:04;58.5;49.6;
13030;PMS7003;6582;54.644;9.760;2022-09-01T06:55:09;56.7;48.2;
13030;PMS7003;6582;54.644;9.760;2022-09-01T07:00:08;54.9;46.9;
13030;PMS7003;6582;54.644;9.760;2022-09-01T07:05:04;55.8;47.4;
13030;PMS7003;6582;54.644;9.760;2022-09-01T07:10:17;55.1;46.8;
13030;PMS7003;6582;54.644;9.760;2022-09-01T07:15:16;53.2;45.3;
13030;PMS7003;6582;54.644;9.760;2022-09-01T07:35:05;54.2;45.6;
13030;PMS7003;6582;54.644;9.760;2022-09-01T07:40:18;54.9;46.1;
13030;PMS7003;6582;54.644;9.760;2022-09-01T08:05:02;61.0;50.6;
13030;PMS7003;6582;54.644;9.760;2022-09-01T08:10:03;62.0;51.0;
13030;PMS7003;6582;54.644;9.760;2022-09-01T08:15:16;62.3;51.3;
13030;PMS7003;6582;54.644;9.760;2022-09-01T08:35:03;70.4;62.4;
13030;PMS7003;6582;54.644;9.760;2022-09-01T08:40:05;70.2;61.8;
13030;PMS7003;6582;54.644;9.760;2022-09-01T08:45:06;69.7;61.1;
13030;PMS7003;6582;54.644;9.760;2022-09-01T08:55:20;68.8;59.8;
13030;PMS7003;6582;54.644;9.760;2022-09-01T09:15:06;65.2;54.4;
13030;PMS7003;6582;54.644;9.760;2022-09-01T09:20:02;64.9;53.9;
13030;PMS7003;6582;54.644;9.760;2022-09-01T09:25:07;65.3;54.7;
13030;PMS7003;6582;54.644;9.760;2022-09-01T09:45:04;69.4;60.4;
13030;PMS7003;6582;54.644;9.760;2022-09-01T10:05:21;62.6;51.4;
13030;PMS7003;6582;54.644;9.760;2022-09-01T10:25:04;63.0;52.0;
13030;PMS7003;6582;54.644;9.760;2022-09-01T10:30:16;72.4;61.8;
13030;PMS7003;6582;54.644;9.760;2022-09-01T10:35:03;69.9;59.2;
13030;PMS7003;6582;54.644;9.760;2022-09-01T10:40:10;67.9;57.2;
13030;PMS7003;6582;54.644;9.760;2022-09-01T10:45:02;66.8;56.1;
13030;PMS7003;6582;54.644;9.760;2022-09-01T11:05:11;68.4;60.0;
13030;PMS7003;6582;54.644;9.760;2022-09-01T11:10:35;67.5;58.4;
13030;PMS7003;6582;54.644;9.760;2022-09-01T11:15:05;68.7;60.4;
13030;PMS7003;6582;54.644;9.760;2022-09-01T11:20:05;71.6;65.4;
13030;PMS7003;6582;54.644;9.760;2022-09-01T12:05:02;78.6;78.6;
13030;PMS7003;6582;54.644;9.760;2022-09-01T12:10:01;81.4;81.4;
13030;PMS7003;6582;54.644;9.760;2022-09-01T12:35:16;78.4;77.6;
13030;PMS7003;6582;54.644;9.760;2022-09-01T12:40:02;77.8;77.0;
13030;PMS7003;6582;54.644;9.760;2022-09-01T12:45:03;77.0;75.5;
13030;PMS7003;6582;54.644;9.760;2022-09-01T12:50:06;75.8;73.4;
13030;PMS7003;6582;54.644;9.760;2022-09-01T12:55:08;75.6;73.4;
13030;PMS7003;6582;54.644;9.760;2022-09-01T13:00:12;74.5;71.5;
13030;PMS7003;6582;54.644;9.760;2022-09-01T13:25:03;73.8;69.0;
13030;PMS7003;6582;54.644;9.760;2022-09-01T13:30:01;73.9;69.0;
13030;PMS7003;6582;54.644;9.760;2022-09-01T13:40:03;73.7;69.3;
13030;PMS7003;6582;54.644;9.760;2022-09-01T13:45:01;74.0;69.9;
13030;PMS7003;6582;54.644;9.760;2022-09-01T13:50:15;74.5;70.8;
13030;PMS7003;6582;54.644;9.760;2022-09-01T13:55:01;74.1;70.4;
13030;PMS7003;6582;54.644;9.760;2022-09-01T14:00:02;73.6;69.6;
13030;PMS7003;6582;54.644;9.760;2022-09-01T14:05:01;73.3;68.8;
13030;PMS7003;6582;54.644;9.760;2022-09-01T14:10:01;72.5;67.4;
13030;PMS7003;6582;54.644;9.760;2022-09-01T14:15:16;71.7;65.9;
13030;PMS7003;6582;54.644;9.760;2022-09-01T14:20:02;71.4;65.2;
13030;PMS7003;6582;54.644;9.760;2022-09-01T16:05:01;67.0;57.6;
13030;PMS7003;6582;54.644;9.760;2022-09-01T16:10:02;69.1;60.8;
13030;PMS7003;6582;54.644;9.760;2022-09-01T16:15:07;70.0;62.3;
13030;PMS7003;6582;54.644;9.760;2022-09-01T16:20:07;70.6;63.3;
13030;PMS7003;6582;54.644;9.760;2022-09-01T16:25:06;71.1;64.1;
13030;PMS7003;6582;54.644;9.760;2022-09-01T16:30:05;71.4;64.8;
13030;PMS7003;6582;54.644;9.760;2022-09-01T16:35:02;71.6;64.9;
13030;PMS7003;6582;54.644;9.760;2022-09-01T16:40:16;71.1;64.2;
13030;PMS7003;6582;54.644;9.760;2022-09-01T17:15:05;69.2;60.8;
13030;PMS7003;6582;54.644;9.760;2022-09-01T17:20:02;70.6;63.4;
13030;PMS7003;6582;54.644;9.760;2022-09-01T17:25:08;72.9;67.2;
13030;PMS7003;6582;54.644;9.760;2022-09-01T17:30:02;73.3;67.8;
13030;PMS7003;6582;54.644;9.760;2022-09-01T17:55:27;75.8;72.6;
13030;PMS7003;6582;54.644;9.760;2022-09-01T18:15:06;62.2;51.8;
13030;PMS7003;6582;54.644;9.760;2022-09-01T18:55:13;53.4;46.4;
13030;PMS7003;6582;54.644;9.760;2022-09-01T19:15:03;64.8;55.2;
13030;PMS7003;6582;54.644;9.760;2022-09-01T19:35:09;61.8;52.4;
13030;PMS7003;6582;54.644;9.760;2022-09-01T19:40:02;63.5;53.0;
13030;PMS7003;6582;54.644;9.760;2022-09-01T19:45:17;62.5;52.2;
13030;PMS7003;6582;54.644;9.760;2022-09-01T19:50:13;61.3;51.4;
13030;PMS7003;6582;54.644;9.760;2022-09-01T20:15:06;69.6;57.4;
13030;PMS7003;6582;54.644;9.760;2022-09-01T20:20:11;68.9;57.0;
13030;PMS7003;6582;54.644;9.760;2022-09-01T20:25:04;68.7;57.1;
13030;PMS7003;6582;54.644;9.760;2022-09-01T20:30:12;68.4;56.6;
13030;PMS7003;6582;54.644;9.760;2022-09-01T20:35:11;68.8;57.0;
13030;PMS7003;6582;54.644;9.760;2022-09-01T20:40:09;68.4;56.7;
13030;PMS7003;6582;54.644;9.760;2022-09-01T20:45:04;68.5;56.8;
13030;PMS7003;6582;54.644;9.760;2022-09-01T20:50:12;69.0;57.2;
13030;PMS7003;6582;54.644;9.760;2022-09-01T20:55:11;69.5;57.5;
13030;PMS7003;6582;54.644;9.760;2022-09-01T21:00:07;69.4;57.6;
13030;PMS7003;6582;54.644;9.760;2022-09-01T21:05:17;70.1;58.2;
13030;PMS7003;6582;54.644;9.760;2022-09-01T21:25:02;74.4;61.6;
13030;PMS7003;6582;54.644;9.760;2022-09-01T21:30:06;74.1;61.3;
13030;PMS7003;6582;54.644;9.760;2022-09-01T21:35:03;72.4;59.6;
13030;PMS7003;6582;54.644;9.760;2022-09-01T21:40:02;72.2;59.4;
13030;PMS7003;6582;54.644;9.760;2022-09-01T21:45:03;72.1;59.3;
13030;PMS7003;6582;54.644;9.760;2022-09-01T21:50:03;71.4;58.8;
13030;PMS7003;6582;54.644;9.760;2022-09-01T21:55:02;77.0;65.2;
13030;PMS7003;6582;54.644;9.760;2022-09-01T22:00:08;77.2;65.6;
13030;PMS7003;6582;54.644;9.760;2022-09-01T22:05:03;77.8;66.1;
13030;PMS7003;6582;54.644;9.760;2022-09-01T22:10:13;77.4;65.9;
13030;PMS7003;6582;54.644;9.760;2022-09-01T22:15:03;78.0;66.4;
13030;PMS7003;6582;54.644;9.760;2022-09-01T22:20:04;72.9;60.2;
13030;PMS7003;6582;54.644;9.760;2022-09-01T22:25:03;73.5;60.7;
13030;PMS7003;6582;54.644;9.760;2022-09-01T22:30:04;73.2;60.7;
13030;PMS7003;6582;54.644;9.760;2022-09-01T22:35:03;74.7;62.0;
13030;PMS7003;6582;54.644;9.760;2022-09-01T22:40:03;75.1;62.2;
13030;PMS7003;6582;54.644;9.760;2022-09-01T22:45:08;75.3;62.4;
13030;PMS7003;6582;54.644;9.760;2022-09-01T22:50:02;76.8;63.9;
13030;PMS7003;6582;54.644;9.760;2022-09-01T22:55:02;78.8;66.1;
13030;PMS7003;6582;54.644;9.760;2022-09-01T23:00:04;79.9;67.5;
13030;PMS7003;6582;54.644;9.760;2022-09-01T23:05:06;83.1;72.4;
13030;PMS7003;6582;54.644;9.760;2022-09-01T23:10:03;86.6;77.9;
13030;PMS7003;6582;54.644;9.760;2022-09-01T23:15:07;89.0;82.0;
13030;PMS7003;6582;54.644;9.760;2022-09-01T23:20:04;92.9;87.8;
13030;PMS7003;6582;54.644;9.760;2022-09-01T23:25:03;95.1;91.6;
13030;PMS7003;6582;54.644;9.760;2022-09-01T23:30:02;91.4;86.2;
13030;PMS7003;6582;54.644;9.760;2022-09-01T23:35:07;87.8;80.7;
13030;PMS7003;6582;54.644;9.760;2022-09-01T23:40:04;83.7;75.0;
13030;PMS7003;6582;54.644;9.760;2022-09-01T23:45:07;80.7;70.1;
13030;PMS7003;6582;54.644;9.760;2022-09-01T23:50:02;85.9;76.2;
13030;PMS7003;6582;54.644;9.760;2022-09-01T23:55:02;86.0;76.3;
